createdAt,value
2023-08-11T00:02:09.274Z,4.93
2023-08-11T00:04:37.454Z,4.70
2023-08-11T00:07:05.654Z,5.25
2023-08-11T00:09:34.049Z,5.28
2023-08-11T00:12:04.031Z,5.38
2023-08-11T00:14:31.697Z,4.82
2023-08-11T00:16:59.880Z,4.85
2023-08-11T00:19:28.072Z,5.18
2023-08-11T00:21:57.409Z,5.03
2023-08-11T00:24:25.379Z,5.57
2023-08-11T00:26:53.337Z,5.97
2023-08-11T00:29:22.482Z,6.03
2023-08-11T00:31:50.308Z,6.25
2023-08-11T00:34:17.995Z,5.93
2023-08-11T00:36:48.331Z,5.63
2023-08-11T00:39:16.986Z,5.60
2023-08-11T00:41:44.781Z,5.88
2023-08-11T00:44:12.622Z,5.70
2023-08-11T00:46:43.394Z,6.00
2023-08-11T00:49:11.606Z,6.03
2023-08-11T00:51:39.823Z,5.32
2023-08-11T00:54:11.892Z,5.80
2023-08-11T00:56:45.495Z,5.75
2023-08-11T00:59:14.299Z,5.47
2023-08-11T01:01:42.021Z,5.40
2023-08-11T01:04:09.743Z,5.40
2023-08-11T01:07:26.131Z,6.22
2023-08-11T01:10:25.407Z,5.85
2023-08-11T01:13:17.160Z,7.07
2023-08-11T01:21:07.207Z,6.32
2023-08-11T01:23:38.460Z,7.53
2023-08-11T01:26:06.474Z,7.07
2023-08-11T01:28:36.030Z,7.10
2023-08-11T01:31:04.570Z,7.57
2023-08-11T01:33:32.214Z,7.78
2023-08-11T01:35:59.726Z,6.45
2023-08-11T01:38:36.045Z,6.70
2023-08-11T01:41:07.804Z,7.57
2023-08-11T01:43:38.112Z,6.90
2023-08-11T01:46:12.265Z,6.90
2023-08-11T01:48:40.656Z,7.43
2023-08-11T01:51:08.651Z,6.90
2023-08-11T01:53:37.222Z,6.47
2023-08-11T01:56:06.317Z,7.22
2023-08-11T01:58:34.116Z,8.10
2023-08-11T02:01:01.682Z,6.80
2023-08-11T02:03:29.282Z,7.35
2023-08-11T02:05:57.027Z,8.02
2023-08-11T02:08:24.555Z,7.32
2023-08-11T02:10:52.131Z,8.63
2023-08-11T02:13:20.849Z,7.40
2023-08-11T02:15:48.441Z,8.18
2023-08-11T02:18:16.143Z,7.25
2023-08-11T02:20:43.841Z,7.30
2023-08-11T02:23:11.398Z,7.25
2023-08-11T02:25:41.056Z,8.50
2023-08-11T02:28:08.509Z,9.07
2023-08-11T02:30:36.799Z,9.65
2023-08-11T02:33:04.784Z,8.48
2023-08-11T02:35:32.749Z,9.25
2023-08-11T02:38:00.545Z,8.27
2023-08-11T02:40:28.138Z,9.48
2023-08-11T02:42:59.277Z,8.38
2023-08-11T02:45:29.709Z,8.82
2023-08-11T02:47:57.669Z,8.77
2023-08-11T02:50:25.617Z,8.15
2023-08-11T02:52:53.321Z,8.90
2023-08-11T02:55:23.739Z,8.93
2023-08-11T02:57:54.503Z,10.00
2023-08-11T03:00:24.827Z,8.60
2023-08-11T03:02:52.707Z,9.50
2023-08-11T03:05:20.963Z,9.32
2023-08-11T03:08:18.753Z,10.10
2023-08-11T03:10:56.692Z,9.00
2023-08-11T03:13:30.271Z,9.65
2023-08-11T03:16:01.296Z,9.27
2023-08-11T03:18:31.330Z,10.45
2023-08-11T03:21:18.766Z,9.35
2023-08-11T03:23:50.450Z,8.32
2023-08-11T03:26:20.043Z,9.60
2023-08-11T03:28:47.902Z,9.85
2023-08-11T03:31:15.852Z,8.32
2023-08-11T03:33:48.307Z,9.40
2023-08-11T03:36:16.911Z,9.55
2023-08-11T03:38:45.997Z,9.18
2023-08-11T03:41:13.769Z,9.98
2023-08-11T03:43:41.641Z,11.00
2023-08-11T03:46:09.340Z,10.15
2023-08-11T03:48:39.180Z,10.45
2023-08-11T03:51:08.151Z,11.10
2023-08-11T03:53:37.671Z,10.00
2023-08-11T03:56:08.695Z,9.70
2023-08-11T03:58:41.083Z,9.90
2023-08-11T04:01:09.868Z,10.80
2023-08-11T04:03:40.076Z,10.85
2023-08-11T04:06:07.984Z,11.57
2023-08-11T04:08:35.649Z,10.95
2023-08-11T04:11:03.679Z,9.90
2023-08-11T04:13:34.550Z,11.00
2023-08-11T04:16:02.146Z,9.43
2023-08-11T04:18:29.904Z,10.07
2023-08-11T04:20:57.518Z,10.55
2023-08-11T04:23:27.465Z,10.38
2023-08-11T04:25:56.014Z,10.65
2023-08-11T04:28:32.947Z,9.95
2023-08-11T04:31:12.892Z,11.10
2023-08-11T04:33:41.036Z,10.98
2023-08-11T04:36:09.012Z,11.77
2023-08-11T04:38:36.995Z,11.80
2023-08-11T04:41:04.916Z,11.45
2023-08-11T04:43:38.018Z,11.32
2023-08-11T04:46:11.484Z,11.27
2023-08-11T04:48:41.885Z,12.18
2023-08-11T04:51:09.551Z,11.82
2023-08-11T04:53:38.102Z,12.68
2023-08-11T04:56:05.843Z,10.98
2023-08-11T04:58:34.982Z,11.48
2023-08-11T05:01:04.989Z,10.88
2023-08-11T05:03:33.862Z,11.43
2023-08-11T05:06:02.356Z,10.68
2023-08-11T05:08:32.242Z,11.27
2023-08-11T05:11:00.030Z,10.52
2023-08-11T05:13:27.572Z,12.02
2023-08-11T05:15:55.132Z,10.80
2023-08-11T05:18:23.441Z,10.65
2023-08-11T05:20:50.993Z,12.85
2023-08-11T05:23:20.943Z,11.70
2023-08-11T05:25:50.449Z,12.55
2023-08-11T05:28:18.044Z,12.48
2023-08-11T05:30:46.472Z,11.45
2023-08-11T05:33:14.110Z,12.82
2023-08-11T05:35:41.761Z,12.85
2023-08-11T05:38:09.482Z,12.50
2023-08-11T05:40:40.102Z,12.95
2023-08-11T05:43:08.073Z,12.10
2023-08-11T05:45:35.673Z,12.23
2023-08-11T05:48:03.721Z,11.50
2023-08-11T05:50:31.447Z,11.70
2023-08-11T05:52:59.209Z,11.93
2023-08-11T05:55:27.076Z,10.80
2023-08-11T05:57:54.712Z,11.48
2023-08-11T06:00:22.353Z,11.80
2023-08-11T06:02:49.957Z,11.93
2023-08-11T06:05:18.485Z,11.25
2023-08-11T06:07:55.862Z,11.25
2023-08-11T06:10:28.214Z,12.05
2023-08-11T06:12:56.489Z,11.43
2023-08-11T06:15:23.964Z,11.75
2023-08-11T06:17:51.542Z,12.10
2023-08-11T06:20:30.230Z,11.70
2023-08-11T06:23:06.714Z,11.27
2023-08-11T06:25:34.214Z,11.48
2023-08-11T06:28:02.763Z,11.15
2023-08-11T06:30:31.458Z,11.45
2023-08-11T06:32:59.284Z,11.48
2023-08-11T06:35:26.997Z,11.50
2023-08-11T06:37:54.658Z,10.70
2023-08-11T06:40:25.713Z,11.48
2023-08-11T06:42:53.585Z,12.23
2023-08-11T06:45:22.849Z,11.50
2023-08-11T06:47:53.708Z,10.75
2023-08-11T06:50:21.634Z,11.80
2023-08-11T06:52:49.424Z,10.45
2023-08-11T06:55:17.218Z,10.60
2023-08-11T06:57:45.102Z,10.52
2023-08-11T07:00:13.236Z,10.90
2023-08-11T07:02:40.931Z,9.75
2023-08-11T07:05:08.746Z,9.10
2023-08-11T07:07:36.505Z,9.52
2023-08-11T07:10:04.681Z,9.43
2023-08-11T07:12:32.420Z,10.63
2023-08-11T07:15:00.025Z,10.10
2023-08-11T07:17:27.579Z,9.70
2023-08-11T07:19:55.349Z,9.20
2023-08-11T07:22:22.910Z,8.68
2023-08-11T07:24:50.405Z,8.93
2023-08-11T07:27:19.560Z,9.25
2023-08-11T07:29:47.395Z,9.25
2023-08-11T07:32:14.917Z,8.18
2023-08-11T07:34:42.543Z,8.95
2023-08-11T07:37:10.904Z,8.35
2023-08-11T07:39:38.695Z,8.98
2023-08-11T07:42:06.447Z,8.45
2023-08-11T07:44:35.085Z,7.97
2023-08-11T07:47:03.842Z,9.02
2023-08-11T07:49:32.774Z,7.95
2023-08-11T07:52:00.662Z,7.53
2023-08-11T07:54:28.471Z,7.10
2023-08-11T07:56:56.116Z,7.95
2023-08-11T07:59:23.665Z,7.78
2023-08-11T08:01:53.402Z,7.55
2023-08-11T08:04:21.252Z,7.93
2023-08-11T08:06:48.756Z,7.05
2023-08-11T08:09:16.383Z,7.80
2023-08-11T08:11:46.413Z,7.75
2023-08-11T08:14:14.744Z,7.10
2023-08-11T08:16:43.267Z,6.07
2023-08-11T08:19:12.327Z,6.22
2023-08-11T08:21:40.457Z,6.43
2023-08-11T08:24:09.260Z,7.13
2023-08-11T08:26:37.341Z,7.22
2023-08-11T08:29:05.246Z,7.50
2023-08-11T08:31:34.134Z,7.00
2023-08-11T08:34:01.752Z,6.03
2023-08-11T08:36:29.520Z,6.78
2023-08-11T08:38:57.038Z,6.07
2023-08-11T08:41:29.514Z,5.55
2023-08-11T08:43:57.754Z,6.60
2023-08-11T08:46:31.645Z,6.03
2023-08-11T08:49:29.911Z,6.68
2023-08-11T08:51:58.380Z,4.60
2023-08-11T08:54:25.963Z,3.90
2023-08-11T08:56:53.582Z,3.30
2023-08-11T08:59:22.923Z,3.35
2023-08-11T09:01:51.370Z,3.38
2023-08-11T09:04:24.471Z,3.22
2023-08-11T09:06:54.420Z,3.78
2023-08-11T09:09:22.375Z,3.47
2023-08-11T09:11:50.420Z,3.70
2023-08-11T09:14:22.147Z,3.95
2023-08-11T09:16:54.901Z,3.35
2023-08-11T09:19:22.550Z,3.03
2023-08-11T09:21:50.080Z,3.40
2023-08-11T09:24:18.283Z,2.90
2023-08-11T09:26:50.596Z,3.55
2023-08-11T09:29:19.479Z,3.35
2023-08-11T09:31:54.523Z,3.13
2023-08-11T09:34:22.688Z,3.15
2023-08-11T09:36:50.602Z,2.95
2023-08-11T09:39:18.429Z,2.97
2023-08-11T09:41:49.932Z,2.95
2023-08-11T09:44:24.878Z,2.90
2023-08-11T09:46:52.866Z,2.95
2023-08-11T09:49:20.441Z,2.60
2023-08-11T09:51:51.194Z,2.85
2023-08-11T09:54:20.082Z,2.88
2023-08-11T09:56:49.691Z,2.72
2023-08-11T09:59:20.903Z,2.55
2023-08-11T10:01:49.962Z,2.65
2023-08-11T10:04:58.102Z,3.03
2023-08-11T10:07:38.257Z,2.83
2023-08-11T10:10:14.881Z,2.43
2023-08-11T10:12:59.845Z,2.00
2023-08-11T10:15:31.257Z,2.63
2023-08-11T10:17:58.827Z,2.45
2023-08-11T10:20:27.386Z,2.35
2023-08-11T10:22:56.081Z,2.50
2023-08-11T10:25:25.595Z,2.35
2023-08-11T10:27:54.760Z,2.05
2023-08-11T10:30:24.428Z,2.25
2023-08-11T10:32:57.981Z,2.17
2023-08-11T10:35:35.829Z,2.10
2023-08-11T10:38:05.282Z,2.50
2023-08-11T10:40:40.810Z,2.10
2023-08-11T10:43:08.345Z,1.98
2023-08-11T10:45:37.527Z,2.30
2023-08-11T10:48:10.695Z,1.98
2023-08-11T10:50:39.550Z,1.92
2023-08-11T10:53:40.154Z,1.90
2023-08-11T10:56:07.688Z,1.90
2023-08-11T10:58:38.707Z,1.90
2023-08-11T11:03:35.061Z,2.10
2023-08-11T11:06:05.776Z,2.08
2023-08-11T11:08:54.040Z,1.50
2023-08-11T11:11:21.608Z,1.75
2023-08-11T11:13:49.444Z,2.08
2023-08-11T11:16:17.075Z,2.10
2023-08-11T11:18:48.609Z,1.63
2023-08-11T11:21:17.995Z,1.63
2023-08-11T11:23:51.277Z,1.63
2023-08-11T11:26:31.462Z,2.17
2023-08-11T11:29:02.608Z,1.83
2023-08-11T11:31:33.977Z,1.77
2023-08-11T11:34:03.914Z,1.80
2023-08-11T11:36:32.428Z,1.73
2023-08-11T11:39:03.731Z,1.80
2023-08-11T11:41:33.068Z,2.03
2023-08-11T11:44:00.983Z,1.40
2023-08-11T11:46:33.640Z,1.77
2023-08-11T11:49:12.676Z,1.60
2023-08-11T11:51:43.705Z,1.70
2023-08-11T11:54:11.270Z,1.80
2023-08-11T11:56:41.930Z,2.00
2023-08-11T11:59:15.111Z,1.80
2023-08-11T12:01:43.573Z,1.65
2023-08-11T12:04:11.970Z,1.60
2023-08-11T12:06:40.067Z,1.90
2023-08-11T12:09:11.685Z,1.85
2023-08-11T12:11:40.313Z,1.70
2023-08-11T12:14:08.732Z,1.63
2023-08-11T12:16:37.223Z,1.58
2023-08-11T12:19:07.398Z,1.50
2023-08-11T12:21:37.278Z,1.50
2023-08-11T12:24:07.644Z,1.90
2023-08-11T12:26:35.148Z,2.03
2023-08-11T12:29:02.638Z,1.58
2023-08-11T12:31:30.107Z,1.70
2023-08-11T12:33:57.644Z,1.40
2023-08-11T12:36:25.328Z,1.60
2023-08-11T12:38:52.876Z,1.60
2023-08-11T12:41:21.217Z,1.70
2023-08-11T12:43:48.805Z,1.73
2023-08-11T12:46:16.468Z,1.85
2023-08-11T12:48:44.191Z,1.80
2023-08-11T12:51:11.808Z,1.80
2023-08-11T12:53:39.341Z,1.60
2023-08-11T12:56:06.999Z,1.48
2023-08-11T12:58:34.504Z,1.52
2023-08-11T13:01:02.046Z,1.70
2023-08-11T13:03:29.662Z,1.83
2023-08-11T13:05:57.205Z,1.63
2023-08-11T13:08:24.656Z,1.55
2023-08-11T13:10:52.219Z,1.48
2023-08-11T13:13:19.761Z,1.40
2023-08-11T13:15:48.736Z,1.60
2023-08-11T13:18:16.368Z,1.80
2023-08-11T13:20:43.876Z,1.48
2023-08-11T13:23:11.375Z,1.80
2023-08-11T13:25:38.845Z,1.77
2023-08-11T13:28:06.517Z,1.77
2023-08-11T13:30:33.979Z,1.48
2023-08-11T13:33:01.508Z,1.98
2023-08-11T13:35:29.049Z,1.70
2023-08-11T13:37:56.584Z,1.70
2023-08-11T13:40:24.895Z,1.85
2023-08-11T13:42:52.548Z,1.65
2023-08-11T13:45:20.046Z,1.70
2023-08-11T13:47:47.666Z,1.60
2023-08-11T13:50:16.148Z,1.73
2023-08-11T13:52:44.830Z,1.70
2023-08-11T13:55:12.444Z,1.73
2023-08-11T13:57:39.963Z,1.60
2023-08-11T14:00:13.005Z,1.60
2023-08-11T14:02:42.095Z,1.60
2023-08-11T14:05:09.825Z,1.40
2023-08-11T14:07:37.360Z,1.55
2023-08-11T14:10:05.310Z,2.38
2023-08-11T14:12:32.775Z,1.90
2023-08-11T14:15:01.396Z,1.60
2023-08-11T14:17:29.005Z,1.77
2023-08-11T14:19:56.458Z,2.30
2023-08-11T14:22:23.962Z,1.52
2023-08-11T14:24:53.414Z,1.77
2023-08-11T14:27:23.617Z,1.98
2023-08-11T14:29:51.264Z,1.80
2023-08-11T14:32:25.448Z,1.73
2023-08-11T14:34:54.187Z,1.80
2023-08-11T14:37:22.316Z,1.85
2023-08-11T14:39:50.267Z,2.00
2023-08-11T14:42:18.432Z,1.52
2023-08-11T14:44:46.004Z,1.80
2023-08-11T14:47:15.487Z,2.00
2023-08-11T14:49:44.985Z,2.08
2023-08-11T14:52:13.875Z,1.85
2023-08-11T14:54:42.220Z,1.80
2023-08-11T14:57:13.768Z,1.80
2023-08-11T14:59:41.278Z,1.77
2023-08-11T15:02:09.623Z,1.95
2023-08-11T15:04:37.712Z,2.00
2023-08-11T15:07:05.337Z,2.00
2023-08-11T15:09:34.295Z,2.25
2023-08-11T15:12:01.816Z,2.20
2023-08-11T15:14:29.362Z,1.90
2023-08-11T15:16:57.955Z,1.70
2023-08-11T15:19:25.510Z,1.58
2023-08-11T15:21:53.044Z,1.73
2023-08-11T15:24:20.710Z,1.77
2023-08-11T15:26:48.159Z,2.03
2023-08-11T15:29:15.642Z,1.90
2023-08-11T15:31:43.132Z,2.17
2023-08-11T15:34:10.601Z,2.70
2023-08-11T15:36:38.035Z,2.20
2023-08-11T15:39:06.103Z,1.88
2023-08-11T15:41:33.885Z,1.67
2023-08-11T15:44:01.866Z,1.60
2023-08-11T15:46:29.619Z,1.90
2023-08-11T15:48:58.805Z,1.95
2023-08-11T15:51:26.310Z,2.90
2023-08-11T15:53:54.111Z,2.42
2023-08-11T15:56:21.624Z,1.90
2023-08-11T15:58:49.170Z,2.10
2023-08-11T16:01:16.677Z,1.80
2023-08-11T16:03:44.292Z,1.70
2023-08-11T16:06:11.866Z,2.17
2023-08-11T16:08:39.735Z,2.15
2023-08-11T16:11:07.827Z,1.83
2023-08-11T16:13:35.322Z,2.33
2023-08-11T16:16:02.868Z,2.33
2023-08-11T16:18:32.505Z,1.80
2023-08-11T16:21:03.933Z,2.10
2023-08-11T16:23:32.945Z,2.10
2023-08-11T16:26:02.089Z,2.00
2023-08-11T16:28:30.837Z,1.95
2023-08-11T16:30:59.158Z,2.00
2023-08-11T16:33:26.734Z,2.50
2023-08-11T16:35:54.220Z,2.10
2023-08-11T16:38:21.710Z,1.92
2023-08-11T16:40:49.294Z,2.97
2023-08-11T16:43:16.801Z,3.78
2023-08-11T16:45:44.343Z,3.95
2023-08-11T16:48:13.160Z,4.10
2023-08-11T16:50:41.209Z,4.82
2023-08-11T16:53:08.836Z,4.78
2023-08-11T16:55:36.392Z,4.85
2023-08-11T16:58:04.137Z,5.35
2023-08-11T17:00:31.758Z,6.20
2023-08-11T17:02:59.354Z,8.95
2023-08-11T17:05:26.975Z,8.60
2023-08-11T17:07:54.524Z,8.30
2023-08-11T17:10:22.062Z,8.05
2023-08-11T17:12:51.763Z,6.53
2023-08-11T17:15:21.465Z,6.28
2023-08-11T17:17:49.431Z,5.65
2023-08-11T17:20:17.053Z,5.68
2023-08-11T17:22:44.972Z,5.05
2023-08-11T17:25:12.853Z,5.47
2023-08-11T17:27:40.384Z,4.60
2023-08-11T17:30:08.759Z,4.28
2023-08-11T17:32:36.492Z,5.15
2023-08-11T17:35:04.466Z,5.18
2023-08-11T17:37:32.279Z,5.03
2023-08-11T17:40:00.748Z,5.18
2023-08-11T17:42:28.256Z,4.93
2023-08-11T17:44:55.754Z,4.82
2023-08-11T17:47:23.278Z,5.30
2023-08-11T17:49:52.637Z,5.22
2023-08-11T17:52:20.193Z,4.65
2023-08-11T17:54:47.782Z,4.78
2023-08-11T17:57:15.243Z,4.47
2023-08-11T17:59:42.805Z,5.05
2023-08-11T18:02:10.744Z,4.60
2023-08-11T18:04:38.636Z,4.50
2023-08-11T18:07:06.132Z,5.07
2023-08-11T18:09:33.592Z,4.22
2023-08-11T18:12:01.101Z,4.70
2023-08-11T18:14:32.707Z,3.78
2023-08-11T18:17:00.675Z,4.30
2023-08-11T18:19:28.202Z,3.80
2023-08-11T18:21:55.761Z,4.47
2023-08-11T18:24:23.321Z,3.88
2023-08-11T18:26:50.850Z,4.15
2023-08-11T18:29:19.212Z,4.35
2023-08-11T18:31:46.885Z,4.07
2023-08-11T18:34:14.345Z,4.07
2023-08-11T18:36:42.257Z,4.03
2023-08-11T18:39:10.318Z,4.18
2023-08-11T18:41:37.833Z,4.05
2023-08-11T18:44:05.799Z,4.93
2023-08-11T18:46:34.974Z,4.35
2023-08-11T18:49:05.518Z,4.75
2023-08-11T18:51:33.207Z,5.00
2023-08-11T18:54:00.700Z,5.38
2023-08-11T18:56:28.249Z,5.00
2023-08-11T18:58:55.724Z,5.15
2023-08-11T19:01:23.827Z,5.38
2023-08-11T19:03:51.430Z,5.88
2023-08-11T19:06:19.206Z,6.32
2023-08-11T19:08:46.713Z,6.13
2023-08-11T19:11:14.734Z,5.45
2023-08-11T19:13:43.778Z,6.82
2023-08-11T19:16:13.148Z,6.68
2023-08-11T19:18:41.002Z,6.40
2023-08-11T19:21:08.853Z,5.45
2023-08-11T19:23:36.378Z,6.28
2023-08-11T19:26:03.898Z,6.07
2023-08-11T19:28:32.656Z,5.80
2023-08-11T19:31:01.035Z,6.32
2023-08-11T19:33:29.132Z,6.10
2023-08-11T19:35:56.677Z,7.15
2023-08-11T19:38:24.261Z,6.50
2023-08-11T19:40:51.750Z,6.20
2023-08-11T19:43:19.203Z,6.45
2023-08-11T19:45:50.322Z,6.05
2023-08-11T19:48:18.128Z,6.18
2023-08-11T19:50:49.449Z,5.72
2023-08-11T19:55:44.800Z,5.63
2023-08-11T19:58:13.526Z,6.30
2023-08-11T20:00:41.977Z,6.45
2023-08-11T20:03:10.699Z,5.95
2023-08-11T20:05:48.053Z,5.63
2023-08-11T20:08:15.637Z,6.13
2023-08-11T20:10:48.433Z,6.72
2023-08-11T20:13:19.458Z,5.85
2023-08-11T20:15:49.695Z,6.47
2023-08-11T20:18:17.694Z,6.07
2023-08-11T20:20:45.530Z,6.55
2023-08-11T20:23:13.170Z,6.28
2023-08-11T20:25:42.947Z,6.75
2023-08-11T20:28:10.469Z,5.97
2023-08-11T20:30:43.788Z,6.22
2023-08-11T20:33:11.500Z,6.22
2023-08-11T20:35:39.117Z,6.40
2023-08-11T20:38:06.640Z,6.38
2023-08-11T20:40:34.815Z,6.57
2023-08-11T20:43:02.493Z,6.22
2023-08-11T20:45:31.455Z,6.78
2023-08-11T20:48:02.525Z,6.57
2023-08-11T20:52:57.867Z,5.68
2023-08-11T20:55:25.295Z,6.78
2023-08-11T20:57:52.853Z,7.47
2023-08-11T21:00:20.402Z,6.47
2023-08-11T21:02:47.852Z,6.57
2023-08-11T21:05:15.501Z,6.10
2023-08-11T21:07:43.187Z,6.18
2023-08-11T21:10:11.500Z,6.55
2023-08-11T21:12:40.202Z,5.78
2023-08-11T21:15:07.937Z,6.00
2023-08-11T21:17:35.499Z,6.00
2023-08-11T21:20:03.121Z,6.43
2023-08-11T21:22:30.673Z,5.70
2023-08-11T21:24:58.248Z,5.85
2023-08-11T21:27:25.884Z,6.53
2023-08-11T21:29:53.548Z,7.32
2023-08-11T21:32:23.562Z,7.32
2023-08-11T21:34:51.556Z,7.75
2023-08-11T21:37:19.039Z,8.75
2023-08-11T21:39:46.556Z,8.75
2023-08-11T21:42:14.104Z,9.32
2023-08-11T21:44:41.630Z,8.75
2023-08-11T21:47:09.596Z,9.07
2023-08-11T21:49:37.431Z,8.18
2023-08-11T21:52:09.066Z,8.93
2023-08-11T21:54:38.807Z,8.20
2023-08-11T21:57:08.734Z,8.48
2023-08-11T21:59:36.932Z,8.05
2023-08-11T22:02:06.841Z,7.75
2023-08-11T22:04:34.455Z,8.02
2023-08-11T22:07:01.972Z,7.57
2023-08-11T22:09:29.504Z,8.10
2023-08-11T22:11:56.952Z,7.43
2023-08-11T22:14:24.467Z,8.05
2023-08-11T22:16:52.345Z,7.68
2023-08-11T22:19:20.073Z,6.65
2023-08-11T22:21:47.507Z,7.53
2023-08-11T22:24:19.110Z,7.72
2023-08-11T22:26:51.936Z,7.45
2023-08-11T22:29:19.414Z,7.63
2023-08-11T22:31:46.942Z,7.97
2023-08-11T22:34:14.445Z,7.28
2023-08-11T22:36:41.975Z,7.85
2023-08-11T22:39:09.567Z,7.95
2023-08-11T22:41:37.120Z,8.10
2023-08-11T22:44:04.984Z,8.02
2023-08-11T22:46:32.520Z,7.40
2023-08-11T22:49:00.043Z,7.32
2023-08-11T22:51:27.549Z,7.43
2023-08-11T22:53:55.157Z,7.68
2023-08-11T22:56:23.041Z,7.68
2023-08-11T22:58:50.585Z,8.27
2023-08-11T23:01:18.098Z,7.22
2023-08-11T23:03:45.645Z,8.20
2023-08-11T23:06:13.400Z,8.25
2023-08-11T23:08:40.972Z,8.07
2023-08-11T23:11:08.519Z,8.10
2023-08-11T23:13:35.988Z,7.65
2023-08-11T23:16:04.135Z,9.95
2023-08-11T23:18:31.733Z,9.93
2023-08-11T23:20:59.338Z,10.40
2023-08-11T23:23:26.895Z,10.02
2023-08-11T23:25:55.716Z,9.77
2023-08-11T23:28:25.220Z,9.32
2023-08-11T23:30:52.876Z,11.35
2023-08-11T23:33:20.593Z,11.05
2023-08-11T23:35:48.328Z,11.65
2023-08-11T23:38:16.299Z,13.27
2023-08-11T23:40:43.915Z,10.95
2023-08-11T23:43:11.458Z,12.02
2023-08-11T23:45:39.074Z,11.23
2023-08-11T23:48:07.881Z,12.13
2023-08-11T23:50:35.635Z,12.57
2023-08-11T23:53:03.252Z,12.65
2023-08-11T23:55:30.967Z,12.68
2023-08-11T23:57:58.502Z,12.15
